Time;durP1;ratioP1;P1;durP2;ratioP2;P2;SDS_P1;SDS_P2;PMS_P1;PMS_P2;Temp;Humidity;BMP_temperature;BMP_pressure;BME280_temperature;BME280_humidity;BME280_pressure;Samples;Min_cycle;Max_cycle;Signal;HPM_P1;HPM_P2
2022/10/21 00:01:34;;;;;;;;;8.80;7.60;;;;;16.90;75.51;99280.34;5095849;28;8814;-60
2022/10/21 00:04:02;;;;;;;;;6.80;6.40;;;;;16.86;75.40;99267.44;5096375;28;8838;-59
2022/10/21 00:06:29;;;;;;;;;6.40;6.00;;;;;16.81;75.36;99275.19;5096249;28;8826;-60
2022/10/21 00:08:57;;;;;;;;;10.00;9.40;;;;;16.75;75.75;99270.50;5096034;28;8834;-60
2022/10/21 00:11:25;;;;;;;;;12.20;10.80;;;;;16.71;75.77;99258.44;5095873;28;8818;-60
2022/10/21 00:13:53;;;;;;;;;10.20;9.60;;;;;16.68;76.28;99256.09;5095948;28;8829;-60
2022/10/21 00:16:20;;;;;;;;;15.80;12.80;;;;;16.67;76.20;99259.81;5095882;28;8911;-62
2022/10/21 00:18:48;;;;;;;;;11.20;10.80;;;;;16.69;76.43;99247.88;5096158;28;8923;-60
2022/10/21 00:21:16;;;;;;;;;13.00;12.00;;;;;16.69;76.14;99245.16;5095773;28;8910;-60
2022/10/21 00:23:43;;;;;;;;;12.20;10.80;;;;;16.70;76.43;99246.84;5095660;28;8912;-60
2022/10/21 00:26:11;;;;;;;;;12.60;11.20;;;;;16.70;75.90;99230.72;5096018;28;8906;-60
2022/10/21 00:28:39;;;;;;;;;12.40;10.20;;;;;16.68;76.41;99230.06;5094516;28;9526;-59
2022/10/21 00:31:07;;;;;;;;;15.00;15.00;;;;;16.68;76.37;99219.31;5095917;28;8912;-60
2022/10/21 00:33:34;;;;;;;;;3.00;0.60;;;;;16.71;76.39;99232.38;5095773;28;8837;-60
2022/10/21 00:36:02;;;;;;;;;11.20;9.00;;;;;16.72;76.00;99217.91;5095825;28;8922;-59
2022/10/21 00:38:30;;;;;;;;;4.40;3.60;;;;;16.74;75.82;99218.59;5096009;28;8806;-59
2022/10/21 00:40:57;;;;;;;;;10.00;9.80;;;;;16.73;76.20;99210.69;5095467;28;8810;-61
2022/10/21 00:43:25;;;;;;;;;9.40;9.40;;;;;16.72;76.64;99217.09;5095587;28;8818;-61
2022/10/21 00:45:52;;;;;;;;;11.20;11.20;;;;;16.70;76.65;99217.25;5094939;28;8831;-61
2022/10/21 00:48:20;;;;;;;;;9.60;9.40;;;;;16.68;76.28;99202.31;5095105;28;9492;-62
2022/10/21 00:50:48;;;;;;;;;10.00;9.60;;;;;16.66;76.01;99205.22;5095597;28;8838;-59
2022/10/21 00:53:16;;;;;;;;;11.60;11.20;;;;;16.64;76.34;99192.97;5095392;28;8841;-59
2022/10/21 00:55:43;;;;;;;;;10.20;9.20;;;;;16.62;76.18;99186.94;5095472;28;8833;-60
2022/10/21 00:58:11;;;;;;;;;12.40;11.60;;;;;16.60;76.08;99195.16;5095715;28;8867;-60
2022/10/21 01:00:39;;;;;;;;;11.80;9.00;;;;;16.58;76.48;99205.28;5097874;28;8830;-59
2022/10/21 01:03:07;;;;;;;;;6.00;5.60;;;;;16.56;76.29;99209.16;5099557;28;8875;-62
2022/10/21 01:05:34;;;;;;;;;12.60;12.40;;;;;16.54;76.59;99203.94;5098968;28;8834;-60
2022/10/21 01:08:02;;;;;;;;;9.40;6.80;;;;;16.50;76.70;99199.91;5099535;28;8919;-60
2022/10/21 01:10:29;;;;;;;;;9.00;9.00;;;;;16.46;76.29;99197.75;5099427;28;8830;-60
2022/10/21 01:12:58;;;;;;;;;8.80;8.80;;;;;16.43;76.52;99196.28;5100015;28;8830;-60
2022/10/21 01:15:25;;;;;;;;;9.40;9.40;;;;;16.44;76.82;99197.09;5099319;28;8830;-59
2022/10/21 01:17:53;;;;;;;;;12.00;10.00;;;;;16.45;76.35;99183.50;5099570;28;8825;-59
2022/10/21 01:20:20;;;;;;;;;8.80;8.60;;;;;16.46;76.43;99192.38;5099637;28;8837;-59
2022/10/21 01:22:48;;;;;;;;;10.80;9.60;;;;;16.42;76.85;99205.34;5099608;28;8825;-59
2022/10/21 01:25:16;;;;;;;;;7.40;7.40;;;;;16.38;76.81;99208.56;5099317;28;8825;-61
2022/10/21 01:27:44;;;;;;;;;8.20;6.80;;;;;16.32;76.55;99195.81;5099265;28;8826;-59
2022/10/21 01:30:11;;;;;;;;;12.60;10.00;;;;;16.28;77.20;99186.41;5098328;28;8806;-59
2022/10/21 01:32:39;;;;;;;;;10.00;9.40;;;;;16.23;76.98;99180.72;5098786;28;8875;-59
2022/10/21 01:35:08;;;;;;;;;12.20;10.00;;;;;16.22;76.82;99180.94;5098822;28;8818;-59
2022/10/21 01:37:36;;;;;;;;;6.40;5.60;;;;;16.22;76.99;99178.25;5098874;28;8829;-59
2022/10/21 01:40:04;;;;;;;;;9.20;8.60;;;;;16.22;76.65;99172.88;5098886;28;8939;-59
2022/10/21 01:42:31;;;;;;;;;6.80;5.60;;;;;16.22;76.71;99164.81;5098863;28;8826;-59
2022/10/21 01:44:59;;;;;;;;;7.80;6.20;;;;;16.23;77.00;99153.88;5098967;28;8837;-61
2022/10/21 01:47:26;;;;;;;;;12.60;9.60;;;;;16.23;76.66;99152.03;5098441;28;8850;-59
2022/10/21 01:49:54;;;;;;;;;6.20;6.20;;;;;16.22;77.08;99144.13;5098601;28;8845;-60
2022/10/21 01:52:22;;;;;;;;;7.20;6.40;;;;;16.18;76.91;99140.16;5098709;28;8825;-60
2022/10/21 01:54:49;;;;;;;;;6.40;6.40;;;;;16.15;77.22;99135.09;5098712;28;8830;-60
2022/10/21 01:57:17;;;;;;;;;6.00;6.00;;;;;16.12;76.71;99143.53;5099023;28;8834;-60
2022/10/21 01:59:45;;;;;;;;;8.80;7.20;;;;;16.08;76.97;99133.31;5098365;28;8874;-59
2022/10/21 02:02:14;;;;;;;;;7.00;6.00;;;;;16.01;77.00;99125.09;5098434;28;8834;-60
2022/10/21 02:04:41;;;;;;;;;9.20;7.00;;;;;15.98;76.93;99133.53;5098380;28;8845;-62
2022/10/21 02:07:09;;;;;;;;;10.60;8.20;;;;;15.95;77.22;99131.22;5097014;28;8818;-60
2022/10/21 02:09:37;;;;;;;;;9.00;9.00;;;;;15.89;77.19;99125.69;5097877;28;8822;-60
2022/10/21 02:12:04;;;;;;;;;9.40;8.20;;;;;15.83;77.35;99113.81;5097302;28;8857;-62
2022/10/21 02:14:32;;;;;;;;;9.00;8.20;;;;;15.79;77.73;99117.00;5097734;28;8841;-60
2022/10/21 02:17:00;;;;;;;;;9.20;8.80;;;;;15.77;77.76;99111.00;5098400;28;8822;-61
2022/10/21 02:19:27;;;;;;;;;9.00;7.00;;;;;15.79;77.75;99114.34;5098485;28;8856;-61
2022/10/21 02:21:55;;;;;;;;;4.80;4.80;;;;;15.81;77.26;99106.94;5098530;28;8838;-60
2022/10/21 02:24:23;;;;;;;;;6.80;6.00;;;;;15.79;77.31;99096.34;5098475;28;8818;-59
2022/10/21 02:26:50;;;;;;;;;7.60;6.40;;;;;15.75;77.39;99099.56;5097924;28;8841;-60
2022/10/21 02:29:18;;;;;;;;;6.00;5.20;;;;;15.75;77.56;99097.72;5097640;28;8903;-60
2022/10/21 02:31:46;;;;;;;;;4.00;4.00;;;;;15.74;77.43;99096.06;5098112;28;8849;-59
2022/10/21 02:34:13;;;;;;;;;6.80;6.00;;;;;15.69;77.49;99092.25;5097696;28;8918;-62
2022/10/21 02:36:41;;;;;;;;;4.00;4.00;;;;;15.68;77.64;99086.03;5097385;28;8842;-61
2022/10/21 02:39:08;;;;;;;;;6.80;6.80;;;;;15.68;77.63;99093.22;5097352;28;8822;-61
2022/10/21 02:41:36;;;;;;;;;6.80;5.60;;;;;15.67;77.72;99086.19;5097793;28;8837;-61
2022/10/21 02:44:04;;;;;;;;;3.80;3.40;;;;;15.66;77.55;99087.19;5097437;28;8902;-59
2022/10/21 02:49:40;;;;;;;;;6.00;4.80;;;;;15.68;77.66;99090.53;5097126;28;9420;-60
2022/10/21 02:52:08;;;;;;;;;4.00;4.00;;;;;15.67;77.62;99099.59;5097858;28;8834;-60
2022/10/21 02:54:35;;;;;;;;;4.00;3.60;;;;;15.62;77.35;99096.63;5097367;28;9495;-59
2022/10/21 02:57:03;;;;;;;;;7.00;4.00;;;;;15.57;78.13;99093.63;5097038;28;8810;-61
2022/10/21 02:59:31;;;;;;;;;4.00;3.40;;;;;15.52;77.50;99094.16;5096718;28;8895;-60
2022/10/21 03:02:00;;;;;;;;;2.60;2.60;;;;;15.50;77.59;99093.50;5097009;28;8838;-60
2022/10/21 03:04:28;;;;;;;;;6.00;4.00;;;;;15.54;77.79;99089.44;5097693;28;8814;-61
2022/10/21 03:06:55;;;;;;;;;4.00;4.00;;;;;15.62;77.52;99092.09;5097316;28;8907;-60
2022/10/21 03:09:23;;;;;;;;;4.80;3.80;;;;;15.66;77.48;99085.38;5096833;28;8822;-60
2022/10/21 03:11:50;;;;;;;;;1.00;1.00;;;;;15.68;77.05;99090.53;5096903;28;8916;-61
2022/10/21 03:14:18;;;;;;;;;4.00;4.00;;;;;15.74;76.79;99097.91;5096834;28;8833;-60
2022/10/21 03:16:46;;;;;;;;;5.40;3.20;;;;;15.80;77.04;99099.88;5096815;28;9520;-61
2022/10/21 03:19:14;;;;;;;;;3.60;3.00;;;;;15.83;76.94;99096.84;5096898;28;8899;-60
2022/10/21 03:21:41;;;;;;;;;4.00;3.00;;;;;15.86;76.32;99093.81;5096715;28;8830;-62
2022/10/21 03:24:09;;;;;;;;;1.00;1.00;;;;;15.94;76.67;99091.09;5096607;28;8842;-60
2022/10/21 03:26:54;;;;;;;;;3.40;3.00;;;;;15.99;76.30;99105.66;5096990;28;8826;-60
2022/10/21 03:29:22;;;;;;;;;0.20;0.20;;;;;16.00;76.67;99093.06;5096442;28;8814;-60
2022/10/21 03:31:49;;;;;;;;;1.00;1.00;;;;;15.98;76.16;99093.25;5096786;28;8830;-60
2022/10/21 03:34:17;;;;;;;;;1.40;1.40;;;;;16.00;76.75;99091.22;5096893;28;8898;-60
2022/10/21 03:36:44;;;;;;;;;3.60;3.00;;;;;16.04;76.17;99086.31;5096436;28;8822;-60
2022/10/21 03:39:12;;;;;;;;;3.00;3.00;;;;;16.07;76.40;99078.75;5096165;28;8810;-60
2022/10/21 03:41:40;;;;;;;;;1.80;1.40;;;;;16.09;75.91;99084.78;5096089;28;8830;-62
2022/10/21 03:44:07;;;;;;;;;3.00;3.00;;;;;16.13;75.39;99074.50;5096217;28;8922;-60
2022/10/21 03:46:35;;;;;;;;;3.00;2.20;;;;;16.14;76.00;99077.03;5096288;28;8923;-59
2022/10/21 03:49:03;;;;;;;;;2.20;2.20;;;;;16.17;75.38;99071.31;5096383;28;8850;-60
2022/10/21 03:51:38;;;;;;;;;2.60;2.60;;;;;16.14;75.93;99065.47;5096107;28;8949;-60
2022/10/21 03:54:06;;;;;;;;;3.60;3.00;;;;;16.13;75.75;99059.25;5095338;28;8879;-60
2022/10/21 03:56:34;;;;;;;;;1.80;1.00;;;;;16.11;76.18;99058.59;5095839;28;8842;-60
2022/10/21 03:59:01;;;;;;;;;1.00;1.00;;;;;16.09;76.06;99078.56;5095374;28;8906;-60
2022/10/21 04:01:29;;;;;;;;;4.80;3.00;;;;;16.08;75.75;99066.16;5094418;28;8899;-60
2022/10/21 04:03:56;;;;;;;;;1.00;1.00;;;;;16.12;75.53;99071.00;5095699;28;8840;-60
2022/10/21 04:06:25;;;;;;;;;1.00;1.00;;;;;16.12;75.37;99062.94;5095854;28;8841;-61
2022/10/21 04:08:52;;;;;;;;;3.00;1.00;;;;;16.13;75.74;99063.75;5095515;28;8822;-60
2022/10/21 04:11:20;;;;;;;;;1.00;1.00;;;;;16.10;75.64;99066.81;5095532;28;8822;-61
2022/10/21 04:13:48;;;;;;;;;1.00;1.00;;;;;16.07;76.08;99061.81;5095636;28;8830;-60
2022/10/21 04:16:15;;;;;;;;;1.00;1.00;;;;;16.08;75.95;99066.16;5095769;28;8846;-61
2022/10/21 04:18:43;;;;;;;;;3.00;1.00;;;;;16.08;76.19;99061.63;5096023;28;8818;-60
2022/10/21 04:21:11;;;;;;;;;2.60;1.00;;;;;16.10;75.42;99050.69;5095697;28;8818;-61
2022/10/21 04:23:39;;;;;;;;;3.00;2.60;;;;;16.09;75.51;99057.91;5095488;28;8836;-62
2022/10/21 04:26:06;;;;;;;;;0.00;0.00;;;;;16.12;75.58;99064.78;5096245;28;8889;-62
2022/10/21 04:28:36;;;;;;;;;1.80;1.00;;;;;16.14;75.67;99065.47;5096492;28;8834;-61
2022/10/21 04:31:04;;;;;;;;;1.40;1.40;;;;;16.14;75.36;99062.78;5095635;28;8798;-60
2022/10/21 04:33:31;;;;;;;;;3.40;2.20;;;;;16.14;75.47;99054.72;5095614;28;8822;-60
2022/10/21 04:35:59;;;;;;;;;3.00;1.40;;;;;16.11;75.88;99047.00;5098972;28;8837;-60
2022/10/21 04:38:27;;;;;;;;;1.00;1.00;;;;;16.12;75.77;99046.81;5099014;28;8842;-60
2022/10/21 04:40:54;;;;;;;;;1.00;1.00;;;;;16.17;75.71;99054.34;5098168;28;8822;-62
2022/10/21 04:43:22;;;;;;;;;4.40;3.60;;;;;16.19;75.12;99053.97;5098128;28;8829;-60
2022/10/21 04:45:50;;;;;;;;;3.80;3.00;;;;;16.21;75.07;99053.81;5097303;28;8930;-60
2022/10/21 04:48:17;;;;;;;;;3.20;2.20;;;;;16.22;75.33;99046.59;5094881;28;8829;-61
2022/10/21 04:50:45;;;;;;;;;2.60;2.60;;;;;16.20;75.30;99054.81;5094609;28;8934;-59
2022/10/21 04:53:13;;;;;;;;;2.20;2.20;;;;;16.19;75.37;99061.22;5095055;28;8837;-61
2022/10/21 04:55:41;;;;;;;;;3.00;2.60;;;;;16.16;74.94;99060.75;5094881;28;8849;-60
2022/10/21 04:58:09;;;;;;;;;1.40;1.00;;;;;16.12;75.33;99068.31;5095220;28;8966;-59
2022/10/21 05:00:36;;;;;;;;;4.00;3.00;;;;;16.07;75.52;99059.13;5094433;28;8822;-59
2022/10/21 05:03:04;;;;;;;;;3.00;3.00;;;;;16.05;75.55;99066.50;5094779;28;8842;-60
2022/10/21 05:05:32;;;;;;;;;4.00;3.60;;;;;16.05;75.67;99063.81;5094953;28;9816;-59
2022/10/21 05:08:00;;;;;;;;;3.00;3.00;;;;;16.02;75.83;99053.44;5094288;28;9546;-60
2022/10/21 05:10:29;;;;;;;;;4.00;4.00;;;;;16.01;75.98;99051.78;5093726;28;8846;-60
2022/10/21 05:12:57;;;;;;;;;3.00;3.00;;;;;16.01;75.37;99049.09;5093249;28;8822;-60
2022/10/21 05:15:24;;;;;;;;;1.00;1.00;;;;;16.00;75.17;99050.94;5093810;28;8810;-59
2022/10/21 05:17:52;;;;;;;;;3.60;2.20;;;;;15.99;75.80;99051.94;5094156;28;8811;-59
2022/10/21 05:20:20;;;;;;;;;3.00;3.00;;;;;16.01;75.57;99049.91;5093260;28;8837;-59
2022/10/21 05:22:49;;;;;;;;;2.20;2.20;;;;;16.00;75.86;99053.59;5092079;28;8806;-60
2022/10/21 05:25:17;;;;;;;;;2.60;1.00;;;;;15.98;75.54;99052.09;5093234;28;8834;-59
2022/10/21 05:27:45;;;;;;;;;1.00;0.80;;;;;15.97;76.05;99043.22;5092939;28;8830;-62
2022/10/21 05:30:12;;;;;;;;;2.40;2.40;;;;;15.98;76.03;99044.06;5093492;28;8899;-60
2022/10/21 05:32:40;;;;;;;;;4.80;4.80;;;;;15.99;75.63;99037.69;5092697;28;8822;-60
2022/10/21 05:35:10;;;;;;;;;3.80;3.80;;;;;15.99;75.79;99041.19;5092085;28;8846;-60
2022/10/21 05:37:38;;;;;;;;;0.40;0.00;;;;;15.98;76.01;99036.84;5093187;28;8953;-60
2022/10/21 05:40:06;;;;;;;;;4.40;4.00;;;;;15.95;76.15;99034.53;5092822;28;8826;-59
2022/10/21 05:42:33;;;;;;;;;3.40;3.40;;;;;15.91;76.31;99024.31;5093258;28;8820;-60
2022/10/21 05:45:02;;;;;;;;;4.40;3.80;;;;;15.87;75.76;99031.03;5074743;28;9477;-59
2022/10/21 05:47:30;;;;;;;;;3.00;3.00;;;;;15.87;75.85;99029.22;5096444;28;8868;-60
2022/10/21 05:49:57;;;;;;;;;3.40;3.00;;;;;15.85;76.11;99027.72;5097713;28;8833;-61
2022/10/21 05:52:25;;;;;;;;;4.40;3.40;;;;;15.81;76.14;99031.75;5096586;28;8930;-61
2022/10/21 05:54:53;;;;;;;;;5.20;3.60;;;;;15.79;76.65;99028.41;5096405;28;8834;-59
2022/10/21 05:57:21;;;;;;;;;3.00;3.00;;;;;15.78;76.72;99032.13;5096556;28;8846;-60
2022/10/21 05:59:49;;;;;;;;;3.20;3.00;;;;;15.77;76.12;99028.59;5095746;28;8845;-61
2022/10/21 06:02:16;;;;;;;;;4.60;3.60;;;;;15.75;76.21;99036.00;5094372;28;8806;-60
2022/10/21 06:04:44;;;;;;;;;1.00;1.00;;;;;15.74;76.54;99047.75;5095645;28;8910;-60
2022/10/21 06:07:12;;;;;;;;;1.00;1.00;;;;;15.72;76.58;99043.56;5094817;28;8918;-61
2022/10/21 06:09:40;;;;;;;;;3.40;3.20;;;;;15.68;76.35;99036.84;5095908;28;8880;-59
2022/10/21 06:12:08;;;;;;;;;3.40;3.20;;;;;15.64;76.73;99031.00;5095705;28;8836;-59
2022/10/21 06:14:36;;;;;;;;;2.60;1.40;;;;;15.62;76.45;99026.84;5095790;28;8876;-60
2022/10/21 06:17:03;;;;;;;;;4.80;3.40;;;;;15.57;76.54;99029.22;5096242;28;9507;-61
2022/10/21 06:19:31;;;;;;;;;3.60;3.60;;;;;15.53;76.60;99034.09;5095487;28;8834;-60
2022/10/21 06:21:59;;;;;;;;;2.00;1.80;;;;;15.49;77.01;99029.25;5095742;28;8830;-60
2022/10/21 06:24:28;;;;;;;;;3.00;3.00;;;;;15.43;76.76;99038.00;5095828;28;8834;-60
2022/10/21 06:26:56;;;;;;;;;3.20;3.20;;;;;15.35;76.96;99033.53;5095841;28;8873;-60
2022/10/21 06:29:24;;;;;;;;;3.60;3.00;;;;;15.29;77.06;99027.97;5096067;28;8884;-61
2022/10/21 06:31:51;;;;;;;;;3.80;3.80;;;;;15.23;77.30;99032.19;5095648;28;8829;-59
2022/10/21 06:34:19;;;;;;;;;1.00;1.00;;;;;15.19;77.24;99040.75;5096035;28;8825;-61
2022/10/21 06:36:47;;;;;;;;;3.00;3.00;;;;;15.13;77.43;99036.06;5095461;28;8930;-60
2022/10/21 06:39:15;;;;;;;;;2.60;2.60;;;;;15.10;77.89;99037.25;5096046;28;8818;-61
2022/10/21 06:41:42;;;;;;;;;2.60;2.60;;;;;15.06;78.00;99035.09;5096067;28;8852;-62
2022/10/21 06:44:10;;;;;;;;;1.00;1.00;;;;;15.03;77.70;99041.63;5096755;28;8833;-59
2022/10/21 06:46:39;;;;;;;;;3.60;3.60;;;;;14.99;77.68;99045.69;5095914;28;8853;-59
2022/10/21 06:49:06;;;;;;;;;4.40;3.60;;;;;15.00;77.80;99041.97;5095453;28;8861;-59
2022/10/21 06:51:34;;;;;;;;;6.60;6.20;;;;;14.99;77.80;99044.81;5095644;28;8922;-61
2022/10/21 06:54:02;;;;;;;;;3.40;3.00;;;;;14.96;77.78;99040.63;5094910;28;8845;-60
2022/10/21 06:56:30;;;;;;;;;3.20;3.00;;;;;14.98;77.70;99048.50;5095585;28;8857;-60
2022/10/21 06:58:58;;;;;;;;;3.00;3.00;;;;;15.00;77.80;99052.72;5096073;28;8834;-61
2022/10/21 07:01:26;;;;;;;;;1.40;1.00;;;;;15.01;77.52;99046.34;5096396;28;8830;-60
2022/10/21 07:04:07;;;;;;;;;3.00;3.00;;;;;15.11;77.53;99059.56;5095438;28;8814;-62
2022/10/21 07:06:35;;;;;;;;;2.20;1.00;;;;;15.20;77.26;99063.88;5095771;28;9460;-60
2022/10/21 07:09:03;;;;;;;;;3.20;3.00;;;;;15.29;76.82;99052.94;5095538;28;8834;-60
2022/10/21 07:11:31;;;;;;;;;1.00;1.00;;;;;15.41;76.84;99050.75;5095604;28;8834;-61
2022/10/21 07:13:59;;;;;;;;;3.60;3.00;;;;;15.53;76.71;99043.97;5094996;28;8806;-60
2022/10/21 07:16:26;;;;;;;;;5.20;3.00;;;;;15.62;76.45;99045.63;5094370;28;8924;-60
2022/10/21 07:18:55;;;;;;;;;3.00;2.60;;;;;15.69;76.06;99043.91;5095912;28;8842;-60
2022/10/21 07:21:23;;;;;;;;;3.00;3.00;;;;;15.76;75.99;99050.25;5095304;28;8830;-60
2022/10/21 07:23:51;;;;;;;;;3.40;3.00;;;;;15.82;75.90;99053.06;5094050;28;8877;-59
2022/10/21 07:26:18;;;;;;;;;3.00;3.00;;;;;15.86;75.92;99061.59;5094540;28;8976;-60
2022/10/21 07:28:46;;;;;;;;;3.00;3.00;;;;;15.90;75.41;99057.53;5094523;28;8814;-61
2022/10/21 07:31:14;;;;;;;;;2.20;2.20;;;;;15.92;75.55;99060.91;5094972;28;8850;-61
2022/10/21 07:33:43;;;;;;;;;4.00;4.00;;;;;15.94;75.95;99053.50;5093758;28;8829;-61
2022/10/21 07:36:10;;;;;;;;;1.80;1.80;;;;;15.95;75.51;99060.53;5094551;28;8930;-60
2022/10/21 07:38:38;;;;;;;;;3.40;3.40;;;;;15.97;75.16;99058.50;5094413;28;8842;-60
2022/10/21 07:41:06;;;;;;;;;3.00;3.00;;;;;15.98;75.24;99062.84;5093662;28;8826;-59
2022/10/21 07:43:34;;;;;;;;;3.00;3.00;;;;;16.00;75.84;99064.34;5094021;28;8943;-60
2022/10/21 07:46:01;;;;;;;;;2.20;1.80;;;;;16.04;75.41;99072.88;5093218;28;8854;-61
2022/10/21 07:48:33;;;;;;;;;3.20;3.00;;;;;16.06;75.69;99073.53;5092740;28;8903;-59
2022/10/21 07:51:01;;;;;;;;;2.60;2.20;;;;;16.08;75.22;99069.66;5093032;28;8848;-60
2022/10/21 07:53:29;;;;;;;;;4.20;3.00;;;;;16.09;75.71;99067.84;5093744;28;9889;-62
2022/10/21 07:55:56;;;;;;;;;1.00;1.00;;;;;16.11;75.43;99084.59;5093855;28;8830;-60
2022/10/21 07:58:25;;;;;;;;;4.80;4.00;;;;;16.11;75.40;99082.75;5093466;28;8842;-60
2022/10/21 08:00:52;;;;;;;;;4.40;3.80;;;;;16.13;75.81;99087.94;5093771;28;8838;-59
2022/10/21 08:03:21;;;;;;;;;4.00;3.00;;;;;16.17;75.23;99086.59;5093874;28;8852;-61
2022/10/21 08:05:48;;;;;;;;;2.20;2.20;;;;;16.26;75.59;99081.78;5092996;28;8830;-59
2022/10/21 08:08:16;;;;;;;;;3.80;3.80;;;;;16.35;75.41;99085.28;5092501;28;8973;-60
2022/10/21 08:10:44;;;;;;;;;3.40;3.40;;;;;16.42;74.89;99084.41;5093590;28;8852;-59
2022/10/21 08:13:13;;;;;;;;;4.00;4.00;;;;;16.48;75.06;99086.38;5093292;28;8833;-60
2022/10/21 08:15:40;;;;;;;;;3.00;2.20;;;;;16.55;74.82;99091.88;5092845;28;8834;-59
2022/10/21 08:18:08;;;;;;;;;2.20;2.20;;;;;16.58;74.90;99086.97;5093434;28;8826;-61
2022/10/21 08:20:36;;;;;;;;;4.00;4.00;;;;;16.60;74.46;99090.31;5094676;28;8834;-60
2022/10/21 08:23:04;;;;;;;;;2.60;2.60;;;;;16.65;74.85;99100.53;5093491;28;8836;-59
2022/10/21 08:25:32;;;;;;;;;3.40;3.40;;;;;16.69;74.20;99101.81;5094158;28;8838;-60
2022/10/21 08:28:00;;;;;;;;;6.00;4.00;;;;;16.71;74.77;99095.25;5094278;28;8906;-61
2022/10/21 08:30:30;;;;;;;;;6.00;6.00;;;;;16.75;74.76;99096.56;5074504;28;8844;-60
2022/10/21 08:32:58;;;;;;;;;2.60;1.40;;;;;16.82;74.36;99096.66;5074615;28;8831;-59
2022/10/21 08:35:26;;;;;;;;;4.00;4.00;;;;;16.87;74.08;99100.47;5073732;28;8848;-59
2022/10/21 08:37:54;;;;;;;;;1.00;1.00;;;;;16.93;74.33;99090.88;5073237;28;8835;-60
2022/10/21 08:40:22;;;;;;;;;3.60;3.00;;;;;16.98;73.92;99088.44;5072897;28;8962;-61
2022/10/21 08:42:50;;;;;;;;;6.00;3.00;;;;;17.03;73.87;99086.91;5073261;28;8906;-60
2022/10/21 08:45:18;;;;;;;;;4.00;3.40;;;;;17.09;74.13;99094.22;5073024;28;8986;-59
2022/10/21 08:47:46;;;;;;;;;1.80;1.80;;;;;17.13;74.24;99089.28;5073608;28;8923;-59
2022/10/21 08:50:14;;;;;;;;;3.20;3.20;;;;;17.15;74.21;99093.47;5073146;28;8832;-59
2022/10/21 08:52:42;;;;;;;;;3.80;3.80;;;;;17.16;73.92;99088.94;5073635;28;8840;-59
2022/10/21 08:55:09;;;;;;;;;6.00;6.00;;;;;17.17;74.26;99098.69;5073652;28;8855;-60
2022/10/21 08:57:37;;;;;;;;;6.00;6.00;;;;;17.19;74.05;99094.78;5073608;28;8856;-60
2022/10/21 09:00:06;;;;;;;;;5.20;5.20;;;;;17.21;74.41;99086.50;5091775;28;8826;-59
2022/10/21 09:02:34;;;;;;;;;5.60;5.60;;;;;17.23;74.68;99088.00;5091532;28;8822;-59
2022/10/21 09:05:02;;;;;;;;;6.40;6.40;;;;;17.25;74.12;99077.06;5091406;28;8849;-60
2022/10/21 09:07:29;;;;;;;;;6.40;6.40;;;;;17.29;74.27;99086.44;5091323;28;8822;-60
2022/10/21 09:09:59;;;;;;;;;6.00;4.80;;;;;17.31;74.45;99079.03;5091242;28;8910;-59
2022/10/21 09:12:27;;;;;;;;;6.40;4.40;;;;;17.32;74.82;99086.88;5091860;28;8822;-60
2022/10/21 09:14:56;;;;;;;;;6.20;6.00;;;;;17.34;74.36;99089.41;5090827;28;8826;-60
2022/10/21 09:17:23;;;;;;;;;5.40;5.20;;;;;17.29;75.06;99092.66;5091002;28;8885;-60
2022/10/21 09:19:51;;;;;;;;;6.40;6.00;;;;;17.19;75.05;99093.94;5091675;28;8838;-59
2022/10/21 09:22:19;;;;;;;;;4.00;4.00;;;;;17.08;75.24;99092.53;5095817;28;8876;-61
2022/10/21 09:25:01;;;;;;;;;4.00;3.80;;;;;16.99;76.13;99106.25;5096440;28;8822;-60
2022/10/21 09:27:29;;;;;;;;;6.80;5.60;;;;;16.92;76.29;99114.22;5096470;28;8826;-59
2022/10/21 09:30:17;;;;;;;;;8.20;6.60;;;;;16.81;76.47;99120.06;5095595;28;8860;-61
2022/10/21 09:32:49;;;;;;;;;4.40;4.40;;;;;16.71;76.62;99119.44;5095141;28;9491;-60
2022/10/21 09:35:17;;;;;;;;;6.80;6.80;;;;;16.65;77.17;99120.16;5095276;28;8829;-60
2022/10/21 09:37:45;;;;;;;;;3.60;3.60;;;;;16.64;77.54;99123.06;5095341;28;8904;-60
2022/10/21 09:40:13;;;;;;;;;3.20;3.20;;;;;16.67;77.36;99123.53;5093914;28;9489;-59
2022/10/21 09:42:41;;;;;;;;;6.20;3.20;;;;;16.67;76.93;99120.00;5094226;28;8930;-60
2022/10/21 09:45:14;;;;;;;;;9.80;6.80;;;;;16.65;77.22;99125.53;5094081;28;8845;-60
2022/10/21 09:47:42;;;;;;;;;6.80;6.20;;;;;16.63;77.32;99119.50;5094270;28;8996;-60
2022/10/21 09:50:10;;;;;;;;;7.00;6.20;;;;;16.64;77.64;99129.25;5092495;28;8849;-60
2022/10/21 09:52:38;;;;;;;;;6.20;4.80;;;;;16.66;77.45;99121.00;5093374;28;8838;-60
2022/10/21 09:55:06;;;;;;;;;7.00;6.20;;;;;16.65;77.50;99122.84;5093455;28;8935;-59
2022/10/21 09:57:35;;;;;;;;;5.60;5.60;;;;;16.64;77.87;99115.81;5094383;28;8841;-59
2022/10/21 10:00:03;;;;;;;;;6.00;4.00;;;;;16.60;77.83;99111.81;5093963;28;8861;-60
2022/10/21 10:02:36;;;;;;;;;6.00;4.00;;;;;16.56;77.44;99110.50;5094348;28;8834;-59
2022/10/21 10:05:08;;;;;;;;;6.00;4.80;;;;;16.51;77.71;99118.28;5094355;28;8833;-60
2022/10/21 10:07:36;;;;;;;;;7.00;6.00;;;;;16.46;78.27;99122.50;5094161;28;9533;-60
2022/10/21 10:10:05;;;;;;;;;6.40;4.00;;;;;16.38;78.56;99107.28;5093175;28;8829;-60
2022/10/21 10:12:33;;;;;;;;;4.00;4.00;;;;;16.35;78.22;99112.16;5094492;28;8833;-60
2022/10/21 10:15:01;;;;;;;;;6.00;6.00;;;;;16.31;78.59;99111.66;5093448;28;8840;-60
2022/10/21 10:17:28;;;;;;;;;3.60;3.60;;;;;16.30;78.85;99106.47;5094178;28;8942;-63
2022/10/21 10:19:57;;;;;;;;;4.00;4.00;;;;;16.28;78.77;99106.66;5094559;28;8814;-60
2022/10/21 10:22:26;;;;;;;;;3.00;3.00;;;;;16.27;78.62;99122.94;5095317;28;8826;-61
2022/10/21 10:24:54;;;;;;;;;6.00;4.00;;;;;16.23;78.82;99118.94;5094738;28;9515;-61
2022/10/21 10:27:22;;;;;;;;;3.80;3.80;;;;;16.21;78.98;99123.66;5093514;28;8844;-60
2022/10/21 10:29:50;;;;;;;;;4.00;4.00;;;;;16.20;78.78;99135.41;5092607;28;8833;-60
2022/10/21 10:32:18;;;;;;;;;6.60;6.00;;;;;16.19;78.90;99139.94;5094012;28;8825;-60
2022/10/21 10:34:46;;;;;;;;;6.00;6.00;;;;;16.18;79.36;99132.91;5095716;28;8845;-60
2022/10/21 10:37:14;;;;;;;;;4.00;4.00;;;;;16.22;78.90;99132.56;5094891;28;8841;-60
2022/10/21 10:39:42;;;;;;;;;9.00;8.20;;;;;16.23;78.84;99131.56;5095824;28;8955;-60
2022/10/21 10:42:10;;;;;;;;;3.80;3.80;;;;;16.25;78.92;99136.56;5095268;28;8830;-60
2022/10/21 10:44:38;;;;;;;;;4.00;4.00;;;;;16.29;78.39;99143.25;5093668;28;8822;-60
2022/10/21 10:47:06;;;;;;;;;1.80;1.80;;;;;16.33;78.57;99147.25;5093590;28;8857;-60
2022/10/21 10:49:34;;;;;;;;;2.20;1.00;;;;;16.38;78.93;99144.91;5093183;28;8856;-60
2022/10/21 10:52:02;;;;;;;;;3.80;3.80;;;;;16.44;78.71;99154.09;5093777;28;8914;-60
2022/10/21 10:54:30;;;;;;;;;3.80;3.80;;;;;16.49;78.39;99140.97;5093697;28;8881;-60
2022/10/21 10:56:59;;;;;;;;;3.00;3.00;;;;;16.54;78.00;99149.31;5093980;28;8938;-60
2022/10/21 10:59:28;;;;;;;;;1.80;1.80;;;;;16.62;78.07;99147.41;5093012;28;8837;-61
2022/10/21 11:01:56;;;;;;;;;1.80;1.00;;;;;16.68;78.09;99145.84;5073753;28;9497;-60
2022/10/21 11:04:24;;;;;;;;;4.00;4.00;;;;;16.73;77.62;99148.84;5073907;28;9044;-60
2022/10/21 11:06:52;;;;;;;;;3.00;2.60;;;;;16.78;77.32;99152.66;5074358;28;8854;-61
2022/10/21 11:09:20;;;;;;;;;4.00;3.20;;;;;16.81;77.50;99149.63;5074577;28;8937;-60
2022/10/21 11:11:55;;;;;;;;;3.00;3.00;;;;;16.85;77.62;99153.63;5075136;28;8840;-61
2022/10/21 11:14:23;;;;;;;;;3.20;3.20;;;;;16.87;77.47;99159.66;5073584;28;8832;-60
2022/10/21 11:16:50;;;;;;;;;5.60;5.60;;;;;16.91;77.44;99160.97;5074171;28;8903;-61
2022/10/21 11:19:27;;;;;;;;;9.20;8.20;;;;;16.91;77.42;99169.03;5078000;28;8842;-59
2022/10/21 11:21:55;;;;;;;;;10.80;10.80;;;;;16.94;77.63;99176.75;5093186;28;8965;-60
2022/10/21 11:24:23;;;;;;;;;6.40;6.40;;;;;16.98;77.52;99175.38;5093184;28;8846;-60
2022/10/21 11:26:51;;;;;;;;;6.20;6.00;;;;;17.02;77.00;99170.47;5093590;28;8834;-61
2022/10/21 11:29:19;;;;;;;;;3.20;3.00;;;;;17.04;77.33;99185.41;5093722;28;8822;-60
2022/10/21 11:31:47;;;;;;;;;9.20;9.20;;;;;17.06;77.61;99183.38;5093351;28;8822;-61
2022/10/21 11:34:36;;;;;;;;;6.20;6.20;;;;;17.07;77.15;99181.50;5093311;28;9543;-62
2022/10/21 11:37:03;;;;;;;;;6.00;4.40;;;;;17.04;77.64;99174.66;5094381;28;8889;-60
2022/10/21 11:39:31;;;;;;;;;6.40;6.40;;;;;17.01;77.35;99171.50;5093922;28;8860;-60
2022/10/21 11:41:59;;;;;;;;;11.20;8.20;;;;;16.99;77.10;99182.41;5093924;28;8841;-60
2022/10/21 11:44:27;;;;;;;;;12.00;11.20;;;;;16.97;77.26;99176.41;5093003;28;8838;-61
2022/10/21 11:46:56;;;;;;;;;6.20;6.20;;;;;16.96;77.70;99179.25;5093531;28;8850;-60
2022/10/21 11:49:23;;;;;;;;;8.00;6.80;;;;;16.94;77.53;99179.44;5093726;28;8838;-61